Terminal Aerodrome Forecast
Issued by NWS

Home | Current Version | Previous Version | Text Only | Print | Product List | Glossary On
Versions: 1 2 3 4 5 6 7 8 9 10 11 12 13 14 15 16 17 18 19 20 21 22 23 24 25 26 27 28 29 30 31 32
000
FTUS44 KFWD 231700
TAFAFW
TAF
KAFW 231732Z 2318/2418 18015KT P6SM SCT040
     FM240900 18016KT P6SM VCTS SCT015 BKN040CB
     FM241200 19017KT P6SM OVC015
     FM241600 26011KT P6SM BKN035=

USA.gov is the U.S. government's official web portal to all federal, state and local government web resources and services.